aviador You're here:

KMKT Decoded Metar

MANKATO in MN, USA
Report Time2017-09-25 15:56:00
UTC Time2017-09-25 16:49:13
Flight Rules ifr IFR
Wind010° at 08 kt
W.Decomp.*RWY 04: 6.6 kt HW 4.5 kt LCW
RWY 33: 6.5 kt HW 4.7 kt RCW
W.Rank010° ranks 20
Current wind is below 010° avg. (8.9)
Visibility9999 m
Phenomena:N/A
Clouds:Overcast 005 Hf
Expected CloudBase > 400 ft AGL from Temp-Dew spread
Ceiling500 ft
Temp14°C (ISA +1)
Dew Point13°C (94% RH)
AAT12.1°C
QNH1016 hPa
Density Alt1,243 ft
Elevation1,020 ft
Report Wrong Elevation
Raw Report
METAR KMKT 251556Z AUTO 01008KT 10SM OVC005 14/13 A2999 RMK AO2 RAB1458E41
CIG 003V009 SLP157 P0001 T01440133=

Extra information for KMKT:More info

Metar Taf Metar & Taf Last 4 Metars F.Rules Stats Wind Profile Meteogram Temp Stats Airport Information Weather charts Add Link Nearby VenuesMetar ALERT Operation Metar Decoded Social comments

AIRNAV info for KMKT